sensor_id;sensor_type;location;lat;lon;timestamp;P1;durP1;ratioP1;P2;durP2;ratioP2
24650;SDS011;12783;48.824;8.662;2023-05-07T00:02:01;2.20;;;1.58;;
24650;SDS011;12783;48.824;8.662;2023-05-07T00:04:30;6.65;;;1.63;;
24650;SDS011;12783;48.824;8.662;2023-05-07T00:07:03;2.30;;;1.50;;
24650;SDS011;12783;48.824;8.662;2023-05-07T00:09:30;2.35;;;1.58;;
24650;SDS011;12783;48.824;8.662;2023-05-07T00:11:57;2.90;;;1.73;;
24650;SDS011;12783;48.824;8.662;2023-05-07T00:14:24;4.93;;;1.50;;
24650;SDS011;12783;48.824;8.662;2023-05-07T00:16:51;3.35;;;1.70;;
24650;SDS011;12783;48.824;8.662;2023-05-07T00:19:18;5.75;;;1.58;;
24650;SDS011;12783;48.824;8.662;2023-05-07T00:21:44;1.70;;;1.60;;
24650;SDS011;12783;48.824;8.662;2023-05-07T00:24:12;1.75;;;1.40;;
24650;SDS011;12783;48.824;8.662;2023-05-07T00:26:38;2.42;;;1.80;;
24650;SDS011;12783;48.824;8.662;2023-05-07T00:29:05;3.67;;;1.58;;
24650;SDS011;12783;48.824;8.662;2023-05-07T00:31:32;1.95;;;1.75;;
24650;SDS011;12783;48.824;8.662;2023-05-07T00:33:59;1.88;;;1.65;;
24650;SDS011;12783;48.824;8.662;2023-05-07T00:36:26;3.15;;;1.98;;
24650;SDS011;12783;48.824;8.662;2023-05-07T00:38:53;2.50;;;1.75;;
24650;SDS011;12783;48.824;8.662;2023-05-07T00:41:21;8.27;;;1.85;;
24650;SDS011;12783;48.824;8.662;2023-05-07T00:43:48;3.85;;;1.60;;
24650;SDS011;12783;48.824;8.662;2023-05-07T00:46:18;1.50;;;1.40;;
24650;SDS011;12783;48.824;8.662;2023-05-07T00:48:47;4.68;;;1.88;;
24650;SDS011;12783;48.824;8.662;2023-05-07T00:51:16;3.75;;;1.90;;
24650;SDS011;12783;48.824;8.662;2023-05-07T00:53:44;2.15;;;1.75;;
24650;SDS011;12783;48.824;8.662;2023-05-07T00:56:12;3.92;;;1.95;;
24650;SDS011;12783;48.824;8.662;2023-05-07T00:58:40;2.08;;;1.50;;
24650;SDS011;12783;48.824;8.662;2023-05-07T01:01:07;2.90;;;1.95;;
24650;SDS011;12783;48.824;8.662;2023-05-07T01:03:34;2.22;;;1.60;;
24650;SDS011;12783;48.824;8.662;2023-05-07T01:06:02;2.22;;;1.60;;
24650;SDS011;12783;48.824;8.662;2023-05-07T01:08:31;3.58;;;1.85;;
24650;SDS011;12783;48.824;8.662;2023-05-07T01:11:01;4.50;;;1.75;;
24650;SDS011;12783;48.824;8.662;2023-05-07T01:13:28;4.82;;;1.83;;
24650;SDS011;12783;48.824;8.662;2023-05-07T01:15:55;2.40;;;1.70;;
24650;SDS011;12783;48.824;8.662;2023-05-07T01:18:22;2.25;;;2.05;;
24650;SDS011;12783;48.824;8.662;2023-05-07T01:20:49;2.20;;;1.75;;
24650;SDS011;12783;48.824;8.662;2023-05-07T01:23:16;3.17;;;1.77;;
24650;SDS011;12783;48.824;8.662;2023-05-07T01:25:50;4.85;;;1.80;;
24650;SDS011;12783;48.824;8.662;2023-05-07T01:28:21;2.63;;;1.80;;
24650;SDS011;12783;48.824;8.662;2023-05-07T01:30:49;3.97;;;1.83;;
24650;SDS011;12783;48.824;8.662;2023-05-07T01:33:21;3.72;;;2.00;;
24650;SDS011;12783;48.824;8.662;2023-05-07T01:35:51;1.80;;;1.40;;
24650;SDS011;12783;48.824;8.662;2023-05-07T01:38:20;1.75;;;1.60;;
24650;SDS011;12783;48.824;8.662;2023-05-07T01:40:49;3.47;;;1.75;;
24650;SDS011;12783;48.824;8.662;2023-05-07T01:43:16;2.75;;;1.70;;
24650;SDS011;12783;48.824;8.662;2023-05-07T01:45:43;2.35;;;1.92;;
24650;SDS011;12783;48.824;8.662;2023-05-07T01:48:12;4.20;;;1.85;;
24650;SDS011;12783;48.824;8.662;2023-05-07T01:50:41;2.05;;;1.80;;
24650;SDS011;12783;48.824;8.662;2023-05-07T01:53:10;2.42;;;1.80;;
24650;SDS011;12783;48.824;8.662;2023-05-07T01:55:37;5.05;;;1.95;;
24650;SDS011;12783;48.824;8.662;2023-05-07T01:58:04;2.50;;;1.80;;
24650;SDS011;12783;48.824;8.662;2023-05-07T02:00:31;2.40;;;1.90;;
24650;SDS011;12783;48.824;8.662;2023-05-07T02:02:58;3.20;;;1.60;;
24650;SDS011;12783;48.824;8.662;2023-05-07T02:05:26;3.97;;;1.77;;
24650;SDS011;12783;48.824;8.662;2023-05-07T02:07:52;3.15;;;1.90;;
24650;SDS011;12783;48.824;8.662;2023-05-07T02:10:20;3.20;;;1.90;;
24650;SDS011;12783;48.824;8.662;2023-05-07T02:12:47;2.45;;;1.95;;
24650;SDS011;12783;48.824;8.662;2023-05-07T02:15:13;3.70;;;2.10;;
24650;SDS011;12783;48.824;8.662;2023-05-07T02:17:57;3.83;;;1.80;;
24650;SDS011;12783;48.824;8.662;2023-05-07T02:20:31;2.60;;;2.03;;
24650;SDS011;12783;48.824;8.662;2023-05-07T02:22:57;3.88;;;2.25;;
24650;SDS011;12783;48.824;8.662;2023-05-07T02:25:24;2.08;;;1.73;;
24650;SDS011;12783;48.824;8.662;2023-05-07T02:27:51;4.78;;;2.10;;
24650;SDS011;12783;48.824;8.662;2023-05-07T02:30:18;4.32;;;1.90;;
24650;SDS011;12783;48.824;8.662;2023-05-07T02:32:47;2.00;;;1.80;;
24650;SDS011;12783;48.824;8.662;2023-05-07T02:35:14;2.13;;;1.80;;
24650;SDS011;12783;48.824;8.662;2023-05-07T02:37:41;3.22;;;1.90;;
24650;SDS011;12783;48.824;8.662;2023-05-07T02:40:08;5.53;;;2.10;;
24650;SDS011;12783;48.824;8.662;2023-05-07T02:42:36;2.50;;;1.63;;
24650;SDS011;12783;48.824;8.662;2023-05-07T02:45:03;3.47;;;1.95;;
24650;SDS011;12783;48.824;8.662;2023-05-07T02:47:31;2.03;;;1.75;;
24650;SDS011;12783;48.824;8.662;2023-05-07T02:49:58;3.67;;;1.90;;
24650;SDS011;12783;48.824;8.662;2023-05-07T02:52:24;2.90;;;1.92;;
24650;SDS011;12783;48.824;8.662;2023-05-07T02:54:52;2.03;;;1.83;;
24650;SDS011;12783;48.824;8.662;2023-05-07T02:57:18;3.80;;;1.85;;
24650;SDS011;12783;48.824;8.662;2023-05-07T02:59:45;3.28;;;2.08;;
24650;SDS011;12783;48.824;8.662;2023-05-07T03:02:12;2.85;;;1.80;;
24650;SDS011;12783;48.824;8.662;2023-05-07T03:04:39;2.30;;;1.67;;
24650;SDS011;12783;48.824;8.662;2023-05-07T03:07:06;2.30;;;1.88;;
24650;SDS011;12783;48.824;8.662;2023-05-07T03:09:33;4.97;;;2.25;;
24650;SDS011;12783;48.824;8.662;2023-05-07T03:12:00;5.63;;;1.95;;
24650;SDS011;12783;48.824;8.662;2023-05-07T03:14:27;3.53;;;2.10;;
24650;SDS011;12783;48.824;8.662;2023-05-07T03:16:54;3.30;;;2.08;;
24650;SDS011;12783;48.824;8.662;2023-05-07T03:19:21;2.72;;;2.20;;
24650;SDS011;12783;48.824;8.662;2023-05-07T03:21:48;5.32;;;2.15;;
24650;SDS011;12783;48.824;8.662;2023-05-07T03:24:15;4.13;;;2.17;;
24650;SDS011;12783;48.824;8.662;2023-05-07T03:26:42;3.03;;;1.92;;
24650;SDS011;12783;48.824;8.662;2023-05-07T03:29:08;5.80;;;2.15;;
24650;SDS011;12783;48.824;8.662;2023-05-07T03:31:35;3.58;;;2.22;;
24650;SDS011;12783;48.824;8.662;2023-05-07T03:34:03;4.72;;;2.30;;
24650;SDS011;12783;48.824;8.662;2023-05-07T03:36:30;3.40;;;2.00;;
24650;SDS011;12783;48.824;8.662;2023-05-07T03:38:57;4.50;;;2.25;;
24650;SDS011;12783;48.824;8.662;2023-05-07T03:41:24;4.25;;;2.10;;
24650;SDS011;12783;48.824;8.662;2023-05-07T03:43:52;3.38;;;2.15;;
24650;SDS011;12783;48.824;8.662;2023-05-07T03:46:19;3.17;;;1.95;;
24650;SDS011;12783;48.824;8.662;2023-05-07T03:48:46;2.63;;;1.95;;
24650;SDS011;12783;48.824;8.662;2023-05-07T03:51:12;3.35;;;2.05;;
24650;SDS011;12783;48.824;8.662;2023-05-07T03:53:39;3.90;;;2.58;;
24650;SDS011;12783;48.824;8.662;2023-05-07T03:56:06;4.22;;;1.90;;
24650;SDS011;12783;48.824;8.662;2023-05-07T03:58:33;4.65;;;2.10;;
24650;SDS011;12783;48.824;8.662;2023-05-07T04:01:00;5.50;;;2.03;;
24650;SDS011;12783;48.824;8.662;2023-05-07T04:03:27;8.93;;;2.20;;
24650;SDS011;12783;48.824;8.662;2023-05-07T04:05:54;4.22;;;1.98;;
24650;SDS011;12783;48.824;8.662;2023-05-07T04:08:21;2.10;;;1.90;;
24650;SDS011;12783;48.824;8.662;2023-05-07T04:10:48;4.90;;;2.20;;
24650;SDS011;12783;48.824;8.662;2023-05-07T04:13:22;3.37;;;1.90;;
24650;SDS011;12783;48.824;8.662;2023-05-07T04:15:49;4.93;;;2.10;;
24650;SDS011;12783;48.824;8.662;2023-05-07T04:18:16;4.03;;;1.90;;
24650;SDS011;12783;48.824;8.662;2023-05-07T04:20:42;2.63;;;2.25;;
24650;SDS011;12783;48.824;8.662;2023-05-07T04:23:09;3.60;;;2.10;;
24650;SDS011;12783;48.824;8.662;2023-05-07T04:25:36;5.10;;;1.90;;
24650;SDS011;12783;48.824;8.662;2023-05-07T04:28:03;2.78;;;2.17;;
24650;SDS011;12783;48.824;8.662;2023-05-07T04:30:30;3.15;;;2.03;;
24650;SDS011;12783;48.824;8.662;2023-05-07T04:32:57;4.10;;;2.00;;
24650;SDS011;12783;48.824;8.662;2023-05-07T04:35:24;2.72;;;1.85;;
24650;SDS011;12783;48.824;8.662;2023-05-07T04:37:50;4.22;;;2.00;;
24650;SDS011;12783;48.824;8.662;2023-05-07T04:40:17;3.55;;;1.77;;
24650;SDS011;12783;48.824;8.662;2023-05-07T04:42:44;4.78;;;2.17;;
24650;SDS011;12783;48.824;8.662;2023-05-07T04:45:12;2.88;;;2.00;;
24650;SDS011;12783;48.824;8.662;2023-05-07T04:47:38;4.18;;;2.30;;
24650;SDS011;12783;48.824;8.662;2023-05-07T04:50:06;3.03;;;2.13;;
24650;SDS011;12783;48.824;8.662;2023-05-07T04:52:34;5.50;;;2.13;;
24650;SDS011;12783;48.824;8.662;2023-05-07T04:55:01;3.47;;;1.90;;
24650;SDS011;12783;48.824;8.662;2023-05-07T04:57:29;5.28;;;2.13;;
24650;SDS011;12783;48.824;8.662;2023-05-07T04:59:55;2.47;;;1.90;;
24650;SDS011;12783;48.824;8.662;2023-05-07T05:02:23;3.40;;;2.10;;
24650;SDS011;12783;48.824;8.662;2023-05-07T05:04:50;4.90;;;2.10;;
24650;SDS011;12783;48.824;8.662;2023-05-07T05:07:16;3.42;;;1.77;;
24650;SDS011;12783;48.824;8.662;2023-05-07T05:09:43;3.60;;;2.30;;
24650;SDS011;12783;48.824;8.662;2023-05-07T05:12:11;3.50;;;2.10;;
24650;SDS011;12783;48.824;8.662;2023-05-07T05:14:37;2.25;;;2.05;;
24650;SDS011;12783;48.824;8.662;2023-05-07T05:17:04;4.15;;;2.15;;
24650;SDS011;12783;48.824;8.662;2023-05-07T05:19:31;2.80;;;2.00;;
24650;SDS011;12783;48.824;8.662;2023-05-07T05:21:58;2.28;;;2.00;;
24650;SDS011;12783;48.824;8.662;2023-05-07T05:24:27;4.70;;;1.92;;
24650;SDS011;12783;48.824;8.662;2023-05-07T05:26:54;2.65;;;1.90;;
24650;SDS011;12783;48.824;8.662;2023-05-07T05:29:21;3.65;;;2.03;;
24650;SDS011;12783;48.824;8.662;2023-05-07T05:31:48;2.10;;;1.90;;
24650;SDS011;12783;48.824;8.662;2023-05-07T05:34:14;7.35;;;2.00;;
24650;SDS011;12783;48.824;8.662;2023-05-07T05:36:41;4.10;;;2.00;;
24650;SDS011;12783;48.824;8.662;2023-05-07T05:39:08;4.15;;;2.00;;
24650;SDS011;12783;48.824;8.662;2023-05-07T05:41:35;3.20;;;1.80;;
24650;SDS011;12783;48.824;8.662;2023-05-07T05:44:02;2.33;;;1.73;;
24650;SDS011;12783;48.824;8.662;2023-05-07T05:46:29;2.05;;;1.80;;
24650;SDS011;12783;48.824;8.662;2023-05-07T05:48:56;3.13;;;2.08;;
24650;SDS011;12783;48.824;8.662;2023-05-07T05:51:23;3.00;;;1.60;;
24650;SDS011;12783;48.824;8.662;2023-05-07T05:53:50;3.70;;;1.70;;
24650;SDS011;12783;48.824;8.662;2023-05-07T05:56:17;3.67;;;1.98;;
24650;SDS011;12783;48.824;8.662;2023-05-07T05:58:44;2.25;;;1.60;;
24650;SDS011;12783;48.824;8.662;2023-05-07T06:01:11;1.77;;;1.67;;
24650;SDS011;12783;48.824;8.662;2023-05-07T06:03:38;2.95;;;1.90;;
24650;SDS011;12783;48.824;8.662;2023-05-07T06:06:05;3.75;;;2.08;;
24650;SDS011;12783;48.824;8.662;2023-05-07T06:08:32;3.20;;;1.70;;
24650;SDS011;12783;48.824;8.662;2023-05-07T06:10:59;3.35;;;1.92;;
24650;SDS011;12783;48.824;8.662;2023-05-07T06:13:27;1.55;;;1.40;;
24650;SDS011;12783;48.824;8.662;2023-05-07T06:15:54;2.65;;;1.88;;
24650;SDS011;12783;48.824;8.662;2023-05-07T06:18:21;6.07;;;1.80;;
24650;SDS011;12783;48.824;8.662;2023-05-07T06:20:47;4.10;;;2.08;;
24650;SDS011;12783;48.824;8.662;2023-05-07T06:23:15;2.28;;;1.58;;
24650;SDS011;12783;48.824;8.662;2023-05-07T06:25:47;1.73;;;1.60;;
24650;SDS011;12783;48.824;8.662;2023-05-07T06:28:16;2.08;;;1.70;;
24650;SDS011;12783;48.824;8.662;2023-05-07T06:30:43;2.30;;;1.70;;
24650;SDS011;12783;48.824;8.662;2023-05-07T06:33:11;4.68;;;2.00;;
24650;SDS011;12783;48.824;8.662;2023-05-07T06:35:38;3.63;;;2.13;;
24650;SDS011;12783;48.824;8.662;2023-05-07T06:38:04;3.60;;;1.83;;
24650;SDS011;12783;48.824;8.662;2023-05-07T06:40:31;4.03;;;1.90;;
24650;SDS011;12783;48.824;8.662;2023-05-07T06:42:58;4.22;;;1.80;;
24650;SDS011;12783;48.824;8.662;2023-05-07T06:45:25;3.08;;;2.10;;
24650;SDS011;12783;48.824;8.662;2023-05-07T06:47:52;3.10;;;1.98;;
24650;SDS011;12783;48.824;8.662;2023-05-07T06:50:19;2.13;;;1.80;;
24650;SDS011;12783;48.824;8.662;2023-05-07T06:52:46;5.10;;;1.90;;
24650;SDS011;12783;48.824;8.662;2023-05-07T06:55:12;3.22;;;2.00;;
24650;SDS011;12783;48.824;8.662;2023-05-07T06:57:39;3.95;;;1.80;;
24650;SDS011;12783;48.824;8.662;2023-05-07T07:00:06;2.20;;;1.60;;
24650;SDS011;12783;48.824;8.662;2023-05-07T07:02:36;3.35;;;2.00;;
24650;SDS011;12783;48.824;8.662;2023-05-07T07:05:03;3.72;;;1.55;;
24650;SDS011;12783;48.824;8.662;2023-05-07T07:07:31;5.40;;;1.80;;
24650;SDS011;12783;48.824;8.662;2023-05-07T07:09:58;4.65;;;1.90;;
24650;SDS011;12783;48.824;8.662;2023-05-07T07:12:25;3.25;;;1.85;;
24650;SDS011;12783;48.824;8.662;2023-05-07T07:14:52;2.15;;;1.80;;
24650;SDS011;12783;48.824;8.662;2023-05-07T07:17:20;2.78;;;1.85;;
24650;SDS011;12783;48.824;8.662;2023-05-07T07:19:47;2.80;;;1.80;;
24650;SDS011;12783;48.824;8.662;2023-05-07T07:22:14;2.65;;;1.80;;
24650;SDS011;12783;48.824;8.662;2023-05-07T07:24:40;1.90;;;1.67;;
24650;SDS011;12783;48.824;8.662;2023-05-07T07:27:07;4.40;;;1.63;;
24650;SDS011;12783;48.824;8.662;2023-05-07T07:29:34;4.07;;;1.98;;
24650;SDS011;12783;48.824;8.662;2023-05-07T07:32:01;2.75;;;1.70;;
24650;SDS011;12783;48.824;8.662;2023-05-07T07:34:28;1.77;;;1.45;;
24650;SDS011;12783;48.824;8.662;2023-05-07T07:36:55;1.70;;;1.60;;
24650;SDS011;12783;48.824;8.662;2023-05-07T07:39:25;2.88;;;1.83;;
24650;SDS011;12783;48.824;8.662;2023-05-07T07:41:52;1.77;;;1.55;;
24650;SDS011;12783;48.824;8.662;2023-05-07T07:44:19;3.05;;;2.13;;
24650;SDS011;12783;48.824;8.662;2023-05-07T07:46:46;2.40;;;2.00;;
24650;SDS011;12783;48.824;8.662;2023-05-07T07:49:14;4.65;;;1.92;;
24650;SDS011;12783;48.824;8.662;2023-05-07T07:51:41;3.28;;;1.90;;
24650;SDS011;12783;48.824;8.662;2023-05-07T07:54:08;4.13;;;2.50;;
24650;SDS011;12783;48.824;8.662;2023-05-07T07:56:35;4.32;;;2.15;;
24650;SDS011;12783;48.824;8.662;2023-05-07T07:59:02;5.18;;;2.00;;
24650;SDS011;12783;48.824;8.662;2023-05-07T08:01:29;2.88;;;1.85;;
24650;SDS011;12783;48.824;8.662;2023-05-07T08:03:57;3.20;;;1.80;;
24650;SDS011;12783;48.824;8.662;2023-05-07T08:06:26;3.85;;;1.73;;
24650;SDS011;12783;48.824;8.662;2023-05-07T08:08:53;2.88;;;2.00;;
24650;SDS011;12783;48.824;8.662;2023-05-07T08:11:20;3.08;;;1.90;;
24650;SDS011;12783;48.824;8.662;2023-05-07T08:13:48;4.38;;;1.70;;
24650;SDS011;12783;48.824;8.662;2023-05-07T08:16:14;3.35;;;2.33;;
24650;SDS011;12783;48.824;8.662;2023-05-07T08:18:42;4.60;;;2.28;;
24650;SDS011;12783;48.824;8.662;2023-05-07T08:21:08;4.20;;;2.00;;
24650;SDS011;12783;48.824;8.662;2023-05-07T08:23:35;2.42;;;2.00;;
24650;SDS011;12783;48.824;8.662;2023-05-07T08:26:02;2.47;;;1.88;;
24650;SDS011;12783;48.824;8.662;2023-05-07T08:28:29;2.22;;;1.90;;
24650;SDS011;12783;48.824;8.662;2023-05-07T08:30:56;5.45;;;2.08;;
24650;SDS011;12783;48.824;8.662;2023-05-07T08:33:26;4.82;;;2.17;;
24650;SDS011;12783;48.824;8.662;2023-05-07T08:35:53;1.75;;;1.65;;
24650;SDS011;12783;48.824;8.662;2023-05-07T08:38:20;6.88;;;2.03;;
24650;SDS011;12783;48.824;8.662;2023-05-07T08:40:48;4.68;;;2.00;;
24650;SDS011;12783;48.824;8.662;2023-05-07T08:43:14;3.67;;;2.25;;
24650;SDS011;12783;48.824;8.662;2023-05-07T08:45:42;4.68;;;2.15;;
24650;SDS011;12783;48.824;8.662;2023-05-07T08:48:15;2.08;;;1.83;;
24650;SDS011;12783;48.824;8.662;2023-05-07T08:50:43;5.22;;;2.08;;
24650;SDS011;12783;48.824;8.662;2023-05-07T08:53:10;5.80;;;2.08;;
24650;SDS011;12783;48.824;8.662;2023-05-07T08:55:38;3.03;;;1.80;;
24650;SDS011;12783;48.824;8.662;2023-05-07T08:58:05;5.43;;;1.85;;
24650;SDS011;12783;48.824;8.662;2023-05-07T09:00:33;2.85;;;2.00;;
24650;SDS011;12783;48.824;8.662;2023-05-07T09:03:01;4.47;;;2.50;;
24650;SDS011;12783;48.824;8.662;2023-05-07T09:05:28;4.72;;;2.00;;
24650;SDS011;12783;48.824;8.662;2023-05-07T09:07:55;4.93;;;2.00;;
24650;SDS011;12783;48.824;8.662;2023-05-07T09:10:25;4.57;;;2.25;;
24650;SDS011;12783;48.824;8.662;2023-05-07T09:12:52;2.58;;;2.00;;
24650;SDS011;12783;48.824;8.662;2023-05-07T09:15:19;3.72;;;1.80;;
24650;SDS011;12783;48.824;8.662;2023-05-07T09:17:46;3.92;;;1.77;;
24650;SDS011;12783;48.824;8.662;2023-05-07T09:20:13;3.53;;;2.13;;
24650;SDS011;12783;48.824;8.662;2023-05-07T09:22:40;1.75;;;1.60;;
24650;SDS011;12783;48.824;8.662;2023-05-07T09:25:07;2.63;;;1.83;;
24650;SDS011;12783;48.824;8.662;2023-05-07T09:27:36;2.90;;;1.83;;
24650;SDS011;12783;48.824;8.662;2023-05-07T09:30:06;5.45;;;1.77;;
24650;SDS011;12783;48.824;8.662;2023-05-07T09:32:35;3.90;;;2.22;;
24650;SDS011;12783;48.824;8.662;2023-05-07T09:35:04;5.13;;;2.08;;
24650;SDS011;12783;48.824;8.662;2023-05-07T09:37:32;2.85;;;2.28;;
24650;SDS011;12783;48.824;8.662;2023-05-07T09:39:59;8.20;;;2.60;;
24650;SDS011;12783;48.824;8.662;2023-05-07T09:42:26;8.35;;;3.40;;
24650;SDS011;12783;48.824;8.662;2023-05-07T09:44:53;7.60;;;3.47;;
24650;SDS011;12783;48.824;8.662;2023-05-07T09:47:20;7.47;;;3.53;;
24650;SDS011;12783;48.824;8.662;2023-05-07T09:49:51;5.13;;;3.22;;
24650;SDS011;12783;48.824;8.662;2023-05-07T09:52:24;6.68;;;3.20;;
24650;SDS011;12783;48.824;8.662;2023-05-07T09:54:54;4.10;;;3.25;;
24650;SDS011;12783;48.824;8.662;2023-05-07T09:57:25;6.13;;;3.28;;
24650;SDS011;12783;48.824;8.662;2023-05-07T09:59:53;4.68;;;3.00;;
24650;SDS011;12783;48.824;8.662;2023-05-07T10:02:22;6.55;;;3.75;;
24650;SDS011;12783;48.824;8.662;2023-05-07T10:04:54;7.93;;;3.55;;
24650;SDS011;12783;48.824;8.662;2023-05-07T10:07:22;5.32;;;3.47;;
24650;SDS011;12783;48.824;8.662;2023-05-07T10:09:50;6.53;;;3.45;;
24650;SDS011;12783;48.824;8.662;2023-05-07T10:12:18;6.07;;;4.40;;
24650;SDS011;12783;48.824;8.662;2023-05-07T10:14:46;5.30;;;4.00;;
24650;SDS011;12783;48.824;8.662;2023-05-07T10:17:16;6.55;;;4.40;;
24650;SDS011;12783;48.824;8.662;2023-05-07T10:19:46;9.77;;;4.10;;
24650;SDS011;12783;48.824;8.662;2023-05-07T10:22:15;5.03;;;4.32;;
24650;SDS011;12783;48.824;8.662;2023-05-07T10:24:43;7.80;;;4.00;;
24650;SDS011;12783;48.824;8.662;2023-05-07T10:27:14;4.85;;;3.50;;
24650;SDS011;12783;48.824;8.662;2023-05-07T10:32:37;5.53;;;3.92;;
24650;SDS011;12783;48.824;8.662;2023-05-07T10:35:25;5.15;;;3.63;;
24650;SDS011;12783;48.824;8.662;2023-05-07T10:40:22;6.07;;;3.33;;
24650;SDS011;12783;48.824;8.662;2023-05-07T10:42:53;5.88;;;3.65;;
24650;SDS011;12783;48.824;8.662;2023-05-07T10:45:27;4.38;;;3.65;;
24650;SDS011;12783;48.824;8.662;2023-05-07T10:48:08;7.20;;;3.60;;
24650;SDS011;12783;48.824;8.662;2023-05-07T10:50:45;4.00;;;3.60;;
24650;SDS011;12783;48.824;8.662;2023-05-07T10:55:48;6.97;;;3.53;;
24650;SDS011;12783;48.824;8.662;2023-05-07T11:00:58;4.18;;;3.33;;
24650;SDS011;12783;48.824;8.662;2023-05-07T11:03:27;6.18;;;3.88;;
24650;SDS011;12783;48.824;8.662;2023-05-07T11:06:14;4.60;;;3.47;;
24650;SDS011;12783;48.824;8.662;2023-05-07T11:11:19;5.43;;;3.70;;
24650;SDS011;12783;48.824;8.662;2023-05-07T11:13:46;8.52;;;3.97;;
24650;SDS011;12783;48.824;8.662;2023-05-07T11:16:19;5.45;;;3.50;;
24650;SDS011;12783;48.824;8.662;2023-05-07T11:18:51;6.18;;;4.47;;
24650;SDS011;12783;48.824;8.662;2023-05-07T11:21:34;5.90;;;3.85;;
24650;SDS011;12783;48.824;8.662;2023-05-07T11:24:06;7.53;;;3.83;;
24650;SDS011;12783;48.824;8.662;2023-05-07T11:26:44;5.00;;;3.88;;
24650;SDS011;12783;48.824;8.662;2023-05-07T11:29:17;8.13;;;3.70;;
24650;SDS011;12783;48.824;8.662;2023-05-07T11:31:49;7.97;;;3.95;;
24650;SDS011;12783;48.824;8.662;2023-05-07T11:34:24;4.07;;;3.00;;
24650;SDS011;12783;48.824;8.662;2023-05-07T11:36:52;4.82;;;3.33;;
24650;SDS011;12783;48.824;8.662;2023-05-07T11:39:23;7.78;;;3.25;;
24650;SDS011;12783;48.824;8.662;2023-05-07T11:41:55;5.05;;;3.00;;
24650;SDS011;12783;48.824;8.662;2023-05-07T11:44:22;3.58;;;2.83;;
24650;SDS011;12783;48.824;8.662;2023-05-07T11:46:49;4.90;;;2.50;;
24650;SDS011;12783;48.824;8.662;2023-05-07T11:49:16;5.70;;;2.67;;
24650;SDS011;12783;48.824;8.662;2023-05-07T11:51:44;3.25;;;2.42;;
24650;SDS011;12783;48.824;8.662;2023-05-07T11:54:15;2.42;;;2.10;;
24650;SDS011;12783;48.824;8.662;2023-05-07T11:56:43;3.70;;;2.10;;
24650;SDS011;12783;48.824;8.662;2023-05-07T11:59:11;3.17;;;2.40;;
24650;SDS011;12783;48.824;8.662;2023-05-07T12:01:38;5.20;;;2.10;;
24650;SDS011;12783;48.824;8.662;2023-05-07T12:04:05;5.55;;;2.47;;
24650;SDS011;12783;48.824;8.662;2023-05-07T12:06:35;2.67;;;2.30;;
24650;SDS011;12783;48.824;8.662;2023-05-07T12:09:04;3.47;;;2.15;;
24650;SDS011;12783;48.824;8.662;2023-05-07T12:11:33;5.25;;;2.17;;
24650;SDS011;12783;48.824;8.662;2023-05-07T12:14:00;3.20;;;2.10;;
24650;SDS011;12783;48.824;8.662;2023-05-07T12:16:27;3.45;;;2.25;;
24650;SDS011;12783;48.824;8.662;2023-05-07T12:18:54;2.65;;;2.10;;
24650;SDS011;12783;48.824;8.662;2023-05-07T12:21:21;4.60;;;2.00;;
24650;SDS011;12783;48.824;8.662;2023-05-07T12:23:50;2.70;;;1.98;;
24650;SDS011;12783;48.824;8.662;2023-05-07T12:26:18;9.10;;;2.03;;
24650;SDS011;12783;48.824;8.662;2023-05-07T12:28:47;2.53;;;1.50;;
24650;SDS011;12783;48.824;8.662;2023-05-07T12:31:14;2.75;;;1.60;;
24650;SDS011;12783;48.824;8.662;2023-05-07T12:33:42;1.80;;;1.50;;
24650;SDS011;12783;48.824;8.662;2023-05-07T12:36:11;3.38;;;1.40;;
24650;SDS011;12783;48.824;8.662;2023-05-07T12:38:39;2.50;;;1.42;;
24650;SDS011;12783;48.824;8.662;2023-05-07T12:41:07;2.28;;;0.90;;
24650;SDS011;12783;48.824;8.662;2023-05-07T12:43:37;1.00;;;0.80;;
24650;SDS011;12783;48.824;8.662;2023-05-07T12:46:05;1.35;;;0.95;;
24650;SDS011;12783;48.824;8.662;2023-05-07T12:48:35;1.67;;;1.10;;
24650;SDS011;12783;48.824;8.662;2023-05-07T12:51:04;4.85;;;0.90;;
24650;SDS011;12783;48.824;8.662;2023-05-07T12:53:32;2.28;;;1.05;;
24650;SDS011;12783;48.824;8.662;2023-05-07T12:55:59;2.22;;;1.67;;
24650;SDS011;12783;48.824;8.662;2023-05-07T12:58:30;1.88;;;1.67;;
24650;SDS011;12783;48.824;8.662;2023-05-07T13:01:03;2.97;;;1.60;;
24650;SDS011;12783;48.824;8.662;2023-05-07T13:03:36;2.55;;;2.10;;
24650;SDS011;12783;48.824;8.662;2023-05-07T13:06:05;4.22;;;3.10;;
24650;SDS011;12783;48.824;8.662;2023-05-07T13:08:40;4.70;;;2.20;;
24650;SDS011;12783;48.824;8.662;2023-05-07T13:11:11;2.53;;;1.95;;
24650;SDS011;12783;48.824;8.662;2023-05-07T13:13:39;6.60;;;2.40;;
24650;SDS011;12783;48.824;8.662;2023-05-07T13:16:08;3.25;;;2.00;;
24650;SDS011;12783;48.824;8.662;2023-05-07T13:18:38;3.38;;;2.08;;
24650;SDS011;12783;48.824;8.662;2023-05-07T13:21:07;4.15;;;1.88;;
24650;SDS011;12783;48.824;8.662;2023-05-07T13:23:34;2.40;;;1.90;;
24650;SDS011;12783;48.824;8.662;2023-05-07T13:26:01;4.07;;;1.90;;
24650;SDS011;12783;48.824;8.662;2023-05-07T13:28:40;5.07;;;1.60;;
24650;SDS011;12783;48.824;8.662;2023-05-07T13:31:07;2.25;;;1.35;;
24650;SDS011;12783;48.824;8.662;2023-05-07T13:33:34;2.20;;;1.70;;
24650;SDS011;12783;48.824;8.662;2023-05-07T13:36:01;2.55;;;1.40;;
24650;SDS011;12783;48.824;8.662;2023-05-07T13:38:31;3.22;;;1.40;;
24650;SDS011;12783;48.824;8.662;2023-05-07T13:40:57;3.25;;;1.48;;
24650;SDS011;12783;48.824;8.662;2023-05-07T13:43:24;4.30;;;1.45;;
24650;SDS011;12783;48.824;8.662;2023-05-07T13:45:51;8.00;;;1.52;;
24650;SDS011;12783;48.824;8.662;2023-05-07T13:48:18;5.53;;;1.40;;
24650;SDS011;12783;48.824;8.662;2023-05-07T13:50:45;1.92;;;1.40;;
24650;SDS011;12783;48.824;8.662;2023-05-07T13:53:12;3.33;;;1.58;;
24650;SDS011;12783;48.824;8.662;2023-05-07T13:55:39;6.07;;;1.30;;
24650;SDS011;12783;48.824;8.662;2023-05-07T13:58:06;3.17;;;1.40;;
24650;SDS011;12783;48.824;8.662;2023-05-07T14:00:33;9.77;;;1.80;;
24650;SDS011;12783;48.824;8.662;2023-05-07T14:02:59;1.85;;;1.38;;
24650;SDS011;12783;48.824;8.662;2023-05-07T14:05:26;4.47;;;1.60;;
24650;SDS011;12783;48.824;8.662;2023-05-07T14:07:59;2.70;;;1.40;;
24650;SDS011;12783;48.824;8.662;2023-05-07T14:10:26;5.50;;;1.67;;
24650;SDS011;12783;48.824;8.662;2023-05-07T14:12:53;2.75;;;1.48;;
24650;SDS011;12783;48.824;8.662;2023-05-07T14:15:20;2.33;;;1.60;;
24650;SDS011;12783;48.824;8.662;2023-05-07T14:17:47;1.80;;;1.50;;
24650;SDS011;12783;48.824;8.662;2023-05-07T14:20:14;1.70;;;1.40;;
24650;SDS011;12783;48.824;8.662;2023-05-07T14:22:41;2.22;;;1.58;;
24650;SDS011;12783;48.824;8.662;2023-05-07T14:25:08;2.97;;;1.50;;
24650;SDS011;12783;48.824;8.662;2023-05-07T14:27:39;5.10;;;1.55;;
24650;SDS011;12783;48.824;8.662;2023-05-07T14:30:06;2.97;;;1.25;;
24650;SDS011;12783;48.824;8.662;2023-05-07T14:32:33;4.18;;;1.80;;
24650;SDS011;12783;48.824;8.662;2023-05-07T14:35:00;2.92;;;1.30;;
24650;SDS011;12783;48.824;8.662;2023-05-07T14:37:27;4.35;;;1.42;;
24650;SDS011;12783;48.824;8.662;2023-05-07T14:39:54;5.75;;;1.52;;
24650;SDS011;12783;48.824;8.662;2023-05-07T14:42:21;3.50;;;1.40;;
24650;SDS011;12783;48.824;8.662;2023-05-07T14:44:48;1.52;;;1.42;;
24650;SDS011;12783;48.824;8.662;2023-05-07T14:47:15;1.63;;;1.25;;
24650;SDS011;12783;48.824;8.662;2023-05-07T14:49:45;3.72;;;1.35;;
24650;SDS011;12783;48.824;8.662;2023-05-07T14:52:12;1.67;;;1.40;;
24650;SDS011;12783;48.824;8.662;2023-05-07T14:54:38;3.70;;;1.50;;
24650;SDS011;12783;48.824;8.662;2023-05-07T14:57:06;2.65;;;1.70;;
24650;SDS011;12783;48.824;8.662;2023-05-07T14:59:35;1.60;;;1.35;;
24650;SDS011;12783;48.824;8.662;2023-05-07T15:02:04;5.22;;;1.60;;
24650;SDS011;12783;48.824;8.662;2023-05-07T15:04:34;1.92;;;1.33;;
24650;SDS011;12783;48.824;8.662;2023-05-07T15:07:01;1.88;;;1.27;;